createdAt,value
2017-05-24T00:05:17.335Z,2.62
2017-05-24T00:07:44.453Z,3.04
2017-05-24T00:10:16.438Z,3.14
2017-05-24T00:12:47.039Z,4.20
2017-05-24T00:15:14.425Z,5.18
2017-05-24T00:17:42.047Z,4.86
2017-05-24T00:22:41.537Z,3.78
2017-05-24T00:25:11.740Z,3.78
2017-05-24T00:27:39.567Z,3.76
2017-05-24T00:30:06.705Z,2.72
2017-05-24T00:32:36.502Z,4.82
2017-05-24T00:35:03.838Z,3.80
2017-05-24T00:37:33.847Z,2.90
2017-05-24T00:42:35.104Z,3.62
2017-05-24T00:45:03.335Z,2.74
2017-05-24T00:47:29.436Z,4.16
2017-05-24T00:52:30.592Z,3.76
2017-05-24T00:54:57.538Z,4.32
2017-05-24T00:57:24.914Z,4.12
2017-05-24T00:59:53.060Z,5.14
2017-05-24T01:02:25.634Z,3.94
2017-05-24T01:04:55.036Z,3.12
2017-05-24T01:07:24.550Z,2.60
2017-05-24T01:12:24.729Z,4.60
2017-05-24T01:14:51.346Z,4.00
2017-05-24T01:17:19.444Z,4.96
2017-05-24T01:19:47.279Z,4.82
2017-05-24T01:22:15.958Z,3.26
2017-05-24T01:24:43.295Z,3.10
2017-05-24T01:27:11.127Z,3.38
2017-05-24T01:29:40.410Z,4.48
2017-05-24T01:32:07.204Z,3.28
2017-05-24T01:34:33.960Z,3.52
2017-05-24T01:37:00.687Z,3.38
2017-05-24T01:39:29.540Z,3.16
2017-05-24T01:41:57.186Z,3.54
2017-05-24T01:44:24.915Z,3.12
2017-05-24T01:46:53.685Z,3.96
2017-05-24T01:49:21.456Z,7.20
2017-05-24T01:51:49.101Z,3.56
2017-05-24T01:54:17.300Z,3.52
2017-05-24T01:56:51.863Z,4.74
2017-05-24T02:08:38.100Z,4.36
2017-05-24T02:13:58.568Z,5.02
2017-05-24T02:16:27.868Z,4.16
2017-05-24T02:18:56.808Z,3.16
2017-05-24T02:21:23.762Z,3.98
2017-05-24T02:23:50.520Z,3.22
2017-05-24T02:26:18.540Z,4.54
2017-05-24T02:28:47.851Z,3.36
2017-05-24T02:31:15.011Z,3.36
2017-05-24T02:33:43.173Z,5.14
2017-05-24T02:36:12.943Z,3.50
2017-05-24T02:38:41.038Z,3.32
2017-05-24T02:41:10.831Z,5.40
2017-05-24T02:46:44.082Z,5.30
2017-05-24T02:49:12.659Z,3.98
2017-05-24T02:51:40.078Z,4.64
2017-05-24T02:54:07.373Z,4.86
2017-05-24T02:56:36.039Z,5.36
2017-05-24T02:59:02.802Z,3.68
2017-05-24T03:01:31.591Z,3.64
2017-05-24T03:04:00.688Z,4.42
2017-05-24T03:06:28.454Z,3.62
2017-05-24T03:08:55.287Z,4.16
2017-05-24T03:13:56.738Z,4.50
2017-05-24T03:16:25.081Z,6.00
2017-05-24T03:18:51.858Z,3.38
2017-05-24T03:21:20.227Z,4.72
2017-05-24T03:23:48.625Z,4.50
2017-05-24T03:26:16.926Z,4.06
2017-05-24T03:28:46.713Z,5.24
2017-05-24T03:31:15.857Z,4.10
2017-05-24T03:33:43.416Z,4.38
2017-05-24T03:36:10.121Z,9.78
2017-05-24T03:38:38.518Z,6.10
2017-05-24T03:41:06.762Z,7.40
2017-05-24T03:43:35.348Z,5.70
2017-05-24T03:46:04.580Z,5.26
2017-05-24T03:48:32.365Z,4.20
2017-05-24T03:50:59.155Z,4.18
2017-05-24T03:53:26.704Z,5.20
2017-05-24T03:55:52.647Z,4.38
2017-05-24T03:58:19.977Z,8.82
2017-05-24T04:00:48.099Z,4.76
2017-05-24T04:03:15.112Z,4.20
2017-05-24T04:05:43.494Z,4.72
2017-05-24T04:08:11.191Z,4.86
2017-05-24T04:10:39.698Z,8.28
2017-05-24T04:13:07.388Z,4.34
2017-05-24T04:15:34.376Z,5.96
2017-05-24T04:18:01.854Z,7.50
2017-05-24T04:20:29.212Z,7.44
2017-05-24T04:22:56.583Z,3.86
2017-05-24T04:25:25.332Z,7.20
2017-05-24T04:27:52.498Z,7.96
2017-05-24T04:30:20.329Z,5.06
2017-05-24T04:32:47.693Z,6.50
2017-05-24T04:35:13.677Z,5.90
2017-05-24T04:37:40.475Z,4.44
2017-05-24T04:40:09.793Z,6.34
2017-05-24T04:42:36.630Z,5.30
2017-05-24T04:45:05.672Z,4.56
2017-05-24T04:47:35.666Z,5.92
2017-05-24T04:50:03.767Z,5.40
2017-05-24T04:52:31.288Z,6.08
2017-05-24T04:55:03.168Z,8.86
2017-05-24T04:57:31.486Z,4.36
2017-05-24T05:00:00.174Z,4.38
2017-05-24T05:02:28.432Z,3.70
2017-05-24T05:04:57.429Z,5.14
2017-05-24T05:07:24.451Z,5.12
2017-05-24T05:09:52.357Z,4.58
2017-05-24T05:12:31.655Z,5.06
2017-05-24T05:14:59.114Z,4.98
2017-05-24T05:17:26.798Z,5.32
2017-05-24T05:19:57.263Z,7.64
2017-05-24T05:22:25.281Z,5.88
2017-05-24T05:24:55.057Z,5.76
2017-05-24T05:27:23.238Z,5.74
2017-05-24T05:29:50.577Z,6.22
2017-05-24T05:32:18.962Z,4.88
2017-05-24T05:37:17.412Z,5.04
2017-05-24T05:39:44.247Z,10.58
2017-05-24T05:42:12.053Z,5.74
2017-05-24T05:44:40.436Z,6.00
2017-05-24T05:47:08.650Z,6.08
2017-05-24T05:49:35.985Z,10.16
2017-05-24T05:52:07.735Z,6.32
2017-05-24T05:54:35.340Z,7.70
2017-05-24T05:57:02.341Z,5.76
2017-05-24T05:59:32.233Z,4.88
2017-05-24T06:01:59.867Z,7.16
2017-05-24T06:04:29.313Z,6.86
2017-05-24T06:06:59.350Z,5.74
2017-05-24T06:09:28.490Z,6.20
2017-05-24T06:11:57.249Z,4.92
2017-05-24T06:14:28.576Z,7.70
2017-05-24T06:16:57.285Z,5.94
2017-05-24T06:19:24.204Z,8.10
2017-05-24T06:21:52.529Z,6.52
2017-05-24T06:24:21.051Z,9.84
2017-05-24T06:26:49.800Z,5.46
2017-05-24T06:29:17.301Z,4.64
2017-05-24T06:31:48.349Z,5.04
2017-05-24T06:34:17.040Z,6.78
2017-05-24T06:36:47.238Z,5.90
2017-05-24T06:39:31.307Z,5.82
2017-05-24T06:44:33.290Z,5.58
2017-05-24T06:47:04.582Z,6.52
2017-05-24T06:49:37.633Z,8.20
2017-05-24T06:52:06.277Z,7.92
2017-05-24T06:54:33.684Z,4.68
2017-05-24T06:57:01.516Z,7.76
2017-05-24T06:59:29.335Z,7.28
2017-05-24T07:01:59.330Z,5.82
2017-05-24T07:04:27.029Z,5.44
2017-05-24T07:06:57.631Z,7.58
2017-05-24T07:09:25.916Z,7.92
2017-05-24T07:11:54.310Z,6.12
2017-05-24T07:16:58.779Z,8.28
2017-05-24T07:19:29.344Z,5.44
2017-05-24T07:22:01.920Z,5.90
2017-05-24T07:24:32.318Z,9.66
2017-05-24T07:29:33.151Z,9.06
2017-05-24T07:32:04.637Z,8.86
2017-05-24T07:34:32.497Z,6.66
2017-05-24T07:37:01.467Z,5.30
2017-05-24T07:39:31.907Z,5.98
2017-05-24T07:42:12.244Z,6.88
2017-05-24T07:44:39.794Z,7.36
2017-05-24T07:47:09.948Z,5.68
2017-05-24T07:49:40.469Z,8.46
2017-05-24T07:52:08.825Z,9.84
2017-05-24T07:54:38.575Z,4.20
2017-05-24T07:57:09.446Z,5.90
2017-05-24T07:59:37.908Z,4.52
2017-05-24T08:02:14.242Z,5.64
2017-05-24T08:04:42.866Z,7.70
2017-05-24T08:07:11.044Z,8.24
2017-05-24T08:09:38.905Z,4.00
2017-05-24T08:12:08.366Z,8.26
2017-05-24T08:14:35.959Z,7.78
2017-05-24T08:17:08.970Z,5.22
2017-05-24T08:19:40.359Z,6.32
2017-05-24T08:22:10.918Z,8.22
2017-05-24T08:24:43.860Z,5.14
2017-05-24T08:27:14.174Z,7.44
2017-05-24T08:29:42.548Z,5.76
2017-05-24T08:34:42.129Z,6.38
2017-05-24T08:37:12.856Z,6.90
2017-05-24T08:39:47.567Z,5.42
2017-05-24T08:42:15.884Z,5.12
2017-05-24T08:44:44.740Z,9.68
2017-05-24T08:47:17.073Z,6.34
2017-05-24T08:49:45.019Z,11.00
2017-05-24T08:52:11.816Z,6.18
2017-05-24T08:54:44.797Z,5.26
2017-05-24T08:57:13.181Z,10.98
2017-05-24T08:59:41.446Z,7.36
2017-05-24T09:02:10.861Z,8.66
2017-05-24T09:04:37.651Z,5.98
2017-05-24T09:07:05.377Z,9.86
2017-05-24T09:09:32.143Z,7.20
2017-05-24T09:11:58.900Z,6.18
2017-05-24T09:14:25.938Z,8.88
2017-05-24T09:16:53.589Z,10.22
2017-05-24T09:21:52.397Z,6.64
2017-05-24T09:24:19.961Z,8.90
2017-05-24T09:26:46.713Z,9.24
2017-05-24T09:29:13.624Z,6.00
2017-05-24T09:31:40.560Z,6.72
2017-05-24T09:36:46.729Z,8.18
2017-05-24T09:39:16.906Z,7.34
2017-05-24T09:41:47.073Z,5.72
2017-05-24T09:44:15.888Z,6.12
2017-05-24T09:46:42.960Z,5.88
2017-05-24T09:49:10.565Z,5.58
2017-05-24T09:51:42.764Z,8.42
2017-05-24T09:54:27.957Z,9.12
2017-05-24T09:56:54.930Z,5.90
2017-05-24T09:59:23.208Z,7.88
2017-05-24T10:01:51.000Z,9.28
2017-05-24T10:04:22.115Z,5.82
2017-05-24T10:06:50.686Z,6.32
2017-05-24T10:09:17.538Z,10.30
2017-05-24T10:11:46.143Z,6.80
2017-05-24T10:14:13.969Z,6.88
2017-05-24T10:16:42.606Z,10.50
2017-05-24T10:19:10.855Z,6.38
2017-05-24T10:21:39.356Z,8.28
2017-05-24T10:24:06.908Z,10.52
2017-05-24T10:26:34.451Z,8.12
2017-05-24T10:29:02.201Z,10.34
2017-05-24T10:31:30.793Z,8.72
2017-05-24T10:33:58.266Z,7.66
2017-05-24T10:36:26.237Z,6.80
2017-05-24T10:38:53.107Z,7.40
2017-05-24T10:41:26.144Z,7.08
2017-05-24T10:43:53.034Z,7.04
2017-05-24T10:46:21.233Z,6.88
2017-05-24T10:48:49.244Z,7.90
2017-05-24T10:51:17.825Z,6.22
2017-05-24T10:56:18.925Z,9.74
2017-05-24T10:58:45.750Z,8.10
2017-05-24T11:01:14.225Z,15.62
2017-05-24T11:03:42.279Z,7.50
2017-05-24T11:06:09.040Z,9.30
2017-05-24T11:08:37.090Z,7.42
2017-05-24T11:11:03.562Z,7.64
2017-05-24T11:13:34.749Z,8.66
2017-05-24T11:18:34.121Z,8.44
2017-05-24T11:21:01.728Z,8.72
2017-05-24T11:23:30.185Z,7.32
2017-05-24T11:25:58.036Z,8.56
2017-05-24T11:31:02.621Z,7.94
2017-05-24T11:33:47.843Z,9.02
2017-05-24T11:36:16.280Z,8.28
2017-05-24T11:38:46.983Z,7.62
2017-05-24T11:41:15.026Z,8.66
2017-05-24T11:51:38.661Z,10.82
2017-05-24T11:54:06.026Z,9.56
2017-05-24T11:56:32.521Z,8.34
2017-05-24T11:58:59.609Z,9.12
2017-05-24T12:03:58.270Z,6.30
2017-05-24T12:06:25.114Z,7.00
2017-05-24T12:08:55.745Z,6.50
2017-05-24T12:11:22.797Z,6.22
2017-05-24T12:13:53.076Z,8.16
2017-05-24T12:16:20.676Z,8.84
2017-05-24T12:18:49.107Z,8.14
2017-05-24T12:21:16.751Z,8.68
2017-05-24T12:23:44.320Z,7.54
2017-05-24T12:28:45.325Z,13.40
2017-05-24T12:31:14.060Z,8.44
2017-05-24T12:33:42.479Z,7.22
2017-05-24T12:36:09.764Z,8.98
2017-05-24T12:38:37.184Z,9.48
2017-05-24T12:44:02.682Z,7.62
2017-05-24T12:46:39.437Z,7.46
2017-05-24T12:49:06.542Z,7.78
2017-05-24T12:54:06.031Z,8.12
2017-05-24T13:07:25.511Z,7.68
2017-05-24T13:09:54.779Z,8.44
2017-05-24T13:14:57.819Z,11.10
2017-05-24T13:17:24.964Z,9.86
2017-05-24T13:25:00.385Z,9.26
2017-05-24T13:27:29.848Z,8.28
2017-05-24T13:32:57.960Z,10.50
2017-05-24T13:41:04.579Z,10.90
2017-05-24T14:05:55.672Z,11.52
2017-05-24T14:08:22.037Z,8.90
2017-05-24T14:32:15.681Z,9.20
2017-05-24T14:45:14.567Z,11.58
2017-05-24T14:47:45.522Z,10.90
2017-05-24T14:55:49.936Z,10.54
2017-05-24T14:58:21.368Z,8.34
2017-05-24T15:03:30.833Z,9.24
2017-05-24T15:06:00.845Z,8.62
2017-05-24T15:11:08.402Z,10.12
2017-05-24T15:16:19.554Z,9.82
2017-05-24T15:18:50.284Z,9.48
2017-05-24T15:24:14.642Z,8.18
2017-05-24T15:43:11.160Z,9.44
2017-05-24T15:48:13.982Z,11.30
2017-05-24T15:53:33.755Z,9.88
2017-05-24T15:56:09.438Z,9.88
2017-05-24T15:58:36.834Z,9.98
2017-05-24T16:25:45.615Z,13.24
2017-05-24T16:36:11.274Z,16.82
2017-05-24T16:41:21.904Z,19.12
2017-05-24T16:46:48.254Z,17.36
2017-05-24T16:49:21.669Z,19.30
2017-05-24T16:51:55.075Z,16.02
2017-05-24T16:57:08.106Z,15.20
2017-05-24T16:59:40.877Z,18.78
2017-05-24T17:04:47.049Z,15.28
2017-05-24T17:07:20.974Z,23.46
2017-05-24T17:09:49.186Z,14.58
2017-05-24T17:36:38.153Z,14.40
2017-05-24T18:10:20.705Z,15.76
2017-05-24T18:12:50.234Z,16.50
2017-05-24T18:21:10.135Z,17.80
2017-05-24T18:26:26.692Z,18.14
2017-05-24T18:34:26.739Z,16.64
2017-05-24T18:45:17.917Z,26.70
2017-05-24T19:30:06.245Z,18.80
2017-05-24T19:46:29.950Z,18.36
2017-05-24T20:00:34.786Z,23.28
2017-05-24T20:20:00.492Z,20.80
2017-05-24T20:22:29.597Z,20.14
2017-05-24T20:30:29.473Z,19.08
2017-05-24T20:33:22.701Z,19.56
2017-05-24T20:35:51.736Z,19.26
2017-05-24T20:43:32.832Z,21.90
2017-05-24T20:46:02.725Z,23.86
2017-05-24T20:48:32.822Z,26.18
2017-05-24T20:51:11.140Z,26.30
2017-05-24T20:53:46.175Z,26.56
2017-05-24T20:56:17.122Z,27.06
2017-05-24T21:14:46.948Z,29.54
2017-05-24T21:38:28.781Z,21.96
2017-05-24T21:40:57.762Z,23.46
2017-05-24T21:48:47.547Z,25.12
2017-05-24T21:51:27.991Z,26.12
2017-05-24T21:56:49.859Z,22.26
2017-05-24T21:59:20.474Z,20.22
2017-05-24T22:01:47.706Z,28.10
2017-05-24T22:04:14.282Z,24.60
2017-05-24T22:06:41.661Z,27.90
2017-05-24T22:09:13.053Z,20.26
2017-05-24T22:14:18.562Z,20.84
2017-05-24T22:19:28.339Z,22.74
2017-05-24T22:21:58.348Z,23.36
2017-05-24T22:27:02.475Z,25.40
2017-05-24T22:29:30.245Z,22.50
2017-05-24T22:34:31.189Z,27.90
2017-05-24T22:37:03.836Z,27.56
2017-05-24T22:39:31.656Z,30.02
2017-05-24T22:42:05.736Z,26.72
2017-05-24T22:44:32.376Z,26.94
2017-05-24T22:47:03.579Z,26.92
2017-05-24T22:49:33.120Z,29.56
2017-05-24T22:54:34.714Z,25.12
2017-05-24T22:57:06.009Z,25.74
2017-05-24T22:59:35.729Z,26.62
2017-05-24T23:02:04.502Z,27.22
2017-05-24T23:04:34.421Z,24.38
2017-05-24T23:07:01.641Z,29.74
2017-05-24T23:09:28.929Z,27.42
2017-05-24T23:11:59.739Z,26.54
2017-05-24T23:17:19.934Z,28.40
2017-05-24T23:19:51.789Z,28.10
2017-05-24T23:27:24.197Z,28.94
2017-05-24T23:29:51.465Z,27.06
2017-05-24T23:32:19.148Z,28.42
2017-05-24T23:45:42.380Z,28.34
2017-05-24T23:50:57.449Z,27.48
2017-05-24T23:53:24.002Z,25.20
2017-05-24T23:56:00.324Z,27.80
2017-05-24T23:58:39.002Z,31.34
